Time;durP1;ratioP1;P1;durP2;ratioP2;P2;SDS_P1;SDS_P2;PMS_P1;PMS_P2;Temp;Humidity;BMP_temperature;BMP_pressure;BME280_temperature;BME280_humidity;BME280_pressure;Samples;Min_cycle;Max_cycle;Signal;HPM_P1;HPM_P2
2021/10/16 00:00:11;;;;;;;10.40;2.75;;;7.90;99.90;;;;;;12443124;28;20076;-86
2021/10/16 00:06:14;;;;;;;14.02;2.85;;;7.80;99.90;;;;;;12446709;28;20079;-85
2021/10/16 00:12:16;;;;;;;12.38;2.63;;;7.80;99.90;;;;;;12462549;28;21420;-84
2021/10/16 00:18:18;;;;;;;12.73;2.20;;;7.80;99.90;;;;;;12461347;28;20553;-85
2021/10/16 00:24:20;;;;;;;11.63;2.40;;;7.80;99.90;;;;;;12432628;28;20150;-85
2021/10/16 00:30:22;;;;;;;16.17;2.65;;;7.80;99.90;;;;;;12461767;28;20152;-85
2021/10/16 00:36:24;;;;;;;13.45;2.67;;;7.90;99.90;;;;;;12439719;28;20060;-85
2021/10/16 00:42:26;;;;;;;15.02;2.50;;;7.90;99.90;;;;;;12438919;28;20054;-85
2021/10/16 00:48:28;;;;;;;13.80;2.50;;;7.90;99.90;;;;;;12439058;28;20057;-85
2021/10/16 00:54:30;;;;;;;16.67;2.58;;;7.90;99.90;;;;;;12443048;28;20719;-85
2021/10/16 01:00:32;;;;;;;16.08;3.00;;;7.70;99.90;;;;;;12442215;28;20063;-86
2021/10/16 01:06:36;;;;;;;10.60;2.38;;;7.80;99.90;;;;;;12444982;28;20076;-85
2021/10/16 01:12:39;;;;;;;12.60;2.65;;;8.00;99.90;;;;;;12439704;28;20469;-84
2021/10/16 01:18:42;;;;;;;10.55;2.95;;;8.00;99.90;;;;;;12456095;28;20056;-84
2021/10/16 01:24:44;;;;;;;10.88;2.70;;;7.90;99.90;;;;;;12435042;28;20077;-84
2021/10/16 01:30:46;;;;;;;15.10;2.30;;;7.80;99.90;;;;;;12430076;28;20783;-85
2021/10/16 01:36:50;;;;;;;9.90;1.90;;;7.80;99.90;;;;;;12440109;28;20138;-85
2021/10/16 01:42:53;;;;;;;17.57;2.33;;;7.70;99.90;;;;;;12449978;28;20085;-85
2021/10/16 01:48:55;;;;;;;13.57;2.65;;;7.50;99.90;;;;;;12437506;28;20501;-86
2021/10/16 01:54:57;;;;;;;13.07;1.98;;;7.50;99.90;;;;;;12431639;28;20090;-85
2021/10/16 02:00:59;;;;;;;12.77;2.55;;;7.60;99.90;;;;;;12439672;28;20083;-84
2021/10/16 02:07:01;;;;;;;8.85;2.20;;;7.60;99.90;;;;;;12441589;28;20081;-84
2021/10/16 02:13:03;;;;;;;7.78;2.10;;;7.60;99.90;;;;;;12442856;28;20147;-86
2021/10/16 02:19:05;;;;;;;11.77;2.05;;;7.60;99.90;;;;;;12443924;28;20310;-84
2021/10/16 02:25:08;;;;;;;8.90;1.73;;;7.70;99.90;;;;;;12434712;28;20148;-85
2021/10/16 02:31:10;;;;;;;15.35;2.00;;;7.70;99.90;;;;;;12455772;28;20049;-84
2021/10/16 02:37:11;;;;;;;8.80;2.22;;;7.60;99.90;;;;;;12436918;28;20049;-85
2021/10/16 02:43:14;;;;;;;9.13;2.10;;;7.60;99.90;;;;;;12463595;28;20087;-84
2021/10/16 02:49:16;;;;;;;13.00;2.63;;;7.60;99.90;;;;;;12458319;28;20388;-84
2021/10/16 02:55:18;;;;;;;15.00;3.75;;;7.50;99.90;;;;;;12444957;28;20049;-84
2021/10/16 03:01:20;;;;;;;11.68;2.50;;;7.40;99.90;;;;;;12445360;28;20178;-85
2021/10/16 03:07:22;;;;;;;8.55;2.15;;;7.40;99.90;;;;;;12448135;28;20138;-84
2021/10/16 03:13:23;;;;;;;12.63;2.60;;;7.30;99.90;;;;;;12446762;28;20129;-84
2021/10/16 03:19:25;;;;;;;10.48;2.35;;;7.10;99.90;;;;;;12448784;28;20675;-85
2021/10/16 03:25:27;;;;;;;9.98;2.72;;;7.00;99.90;;;;;;12448706;28;20486;-84
2021/10/16 03:31:29;;;;;;;9.15;2.15;;;6.90;99.90;;;;;;12462090;28;20041;-84
2021/10/16 03:37:31;;;;;;;6.68;1.88;;;6.90;99.90;;;;;;12463330;28;20132;-84
2021/10/16 03:43:33;;;;;;;9.70;2.45;;;6.90;99.90;;;;;;12462017;28;20341;-84
2021/10/16 03:49:35;;;;;;;10.50;2.53;;;6.80;99.90;;;;;;12444154;28;20091;-85
2021/10/16 03:55:38;;;;;;;10.13;2.40;;;6.70;99.90;;;;;;12442361;28;20081;-84
2021/10/16 04:01:40;;;;;;;10.38;2.60;;;6.60;99.90;;;;;;12447265;28;20056;-84
2021/10/16 04:07:42;;;;;;;8.50;2.55;;;6.30;99.90;;;;;;12480609;28;20071;-84
2021/10/16 04:13:44;;;;;;;9.73;2.42;;;6.00;99.90;;;;;;12465266;28;20068;-84
2021/10/16 04:19:46;;;;;;;14.13;3.17;;;6.10;99.90;;;;;;12442397;28;20067;-84
2021/10/16 04:25:52;;;;;;;6.82;2.40;;;6.10;99.90;;;;;;12445181;28;20470;-84
2021/10/16 04:31:54;;;;;;;10.90;3.10;;;6.20;99.90;;;;;;12435578;28;20136;-85
2021/10/16 04:37:55;;;;;;;8.43;2.85;;;6.30;99.90;;;;;;12461213;28;20041;-83
2021/10/16 04:43:58;;;;;;;11.68;4.35;;;6.20;99.90;;;;;;12460272;28;20080;-85
2021/10/16 04:50:00;;;;;;;11.82;3.65;;;6.20;99.90;;;;;;12434168;28;20167;-84
2021/10/16 04:56:02;;;;;;;17.45;6.30;;;6.20;99.90;;;;;;12442456;28;20045;-84
2021/10/16 05:02:04;;;;;;;7.93;3.85;;;6.00;99.90;;;;;;12439243;28;20071;-84
2021/10/16 05:08:06;;;;;;;9.18;3.95;;;6.20;99.90;;;;;;12439768;28;20057;-84
2021/10/16 05:14:09;;;;;;;13.98;4.28;;;6.10;99.90;;;;;;12457515;28;20581;-83
2021/10/16 05:20:11;;;;;;;11.07;4.18;;;5.90;99.90;;;;;;12459200;28;20102;-84
2021/10/16 05:26:13;;;;;;;13.95;4.43;;;5.90;99.90;;;;;;12435843;28;20089;-84
2021/10/16 05:32:14;;;;;;;10.48;3.20;;;5.90;99.90;;;;;;12438729;28;20237;-84
2021/10/16 05:38:16;;;;;;;8.55;3.38;;;5.90;99.90;;;;;;12438983;28;20055;-83
2021/10/16 05:44:18;;;;;;;11.45;3.50;;;5.90;99.90;;;;;;12438167;28;20049;-84
2021/10/16 05:50:20;;;;;;;11.05;3.78;;;5.80;99.90;;;;;;12431973;28;20053;-83
2021/10/16 05:56:22;;;;;;;12.25;3.25;;;5.90;99.90;;;;;;12477728;28;20068;-83
2021/10/16 06:02:24;;;;;;;12.68;3.97;;;5.90;99.90;;;;;;12447377;28;20413;-83
2021/10/16 06:08:26;;;;;;;11.63;4.53;;;5.80;99.90;;;;;;12433545;28;20457;-84
2021/10/16 06:14:28;;;;;;;9.13;4.07;;;5.80;99.90;;;;;;12459152;28;20045;-83
2021/10/16 06:20:30;;;;;;;11.32;4.57;;;5.70;99.90;;;;;;12437437;28;20173;-83
2021/10/16 06:26:32;;;;;;;9.73;4.22;;;5.70;99.90;;;;;;12447008;28;20053;-84
2021/10/16 06:32:34;;;;;;;11.35;4.72;;;5.70;99.90;;;;;;12451137;28;20057;-84
2021/10/16 06:38:36;;;;;;;11.02;4.80;;;5.80;99.90;;;;;;12448072;28;20076;-83
2021/10/16 06:44:38;;;;;;;8.50;4.82;;;5.80;99.90;;;;;;12452467;28;20073;-82
2021/10/16 06:50:39;;;;;;;8.65;4.40;;;5.90;99.90;;;;;;12463710;28;20045;-83
2021/10/16 06:56:41;;;;;;;11.57;4.78;;;6.00;99.90;;;;;;12444393;28;20049;-82
2021/10/16 07:02:43;;;;;;;9.20;4.43;;;6.10;99.90;;;;;;12459332;28;20037;-83
2021/10/16 07:08:45;;;;;;;10.25;4.75;;;6.20;99.90;;;;;;12465453;28;21281;-83
2021/10/16 07:14:47;;;;;;;10.10;5.63;;;6.30;99.90;;;;;;12443823;28;20095;-83
2021/10/16 07:20:48;;;;;;;8.38;5.05;;;6.30;99.90;;;;;;12458436;28;20046;-83
2021/10/16 07:27:11;;;;;;;10.38;4.88;;;6.40;99.90;;;;;;12446252;28;20127;-83
2021/10/16 07:33:13;;;;;;;8.75;5.43;;;6.20;99.90;;;;;;12464168;28;20565;-82
2021/10/16 07:39:16;;;;;;;8.57;5.00;;;6.50;99.90;;;;;;12435725;28;20136;-82
2021/10/16 07:45:18;;;;;;;10.02;5.40;;;6.50;99.90;;;;;;12443828;28;20061;-84
2021/10/16 07:51:20;;;;;;;10.95;6.07;;;6.70;99.90;;;;;;12466339;28;20573;-83
2021/10/16 07:57:22;;;;;;;9.57;5.70;;;6.70;99.90;;;;;;12444544;28;20081;-84
2021/10/16 08:03:24;;;;;;;14.55;6.65;;;7.00;99.90;;;;;;12439376;28;20045;-84
2021/10/16 08:09:26;;;;;;;8.63;6.13;;;7.00;99.90;;;;;;12440314;28;20045;-84
2021/10/16 08:15:27;;;;;;;12.43;6.97;;;7.00;99.90;;;;;;12461111;28;20103;-83
2021/10/16 08:21:29;;;;;;;10.77;6.68;;;7.00;99.90;;;;;;12441254;28;20049;-84
2021/10/16 08:27:31;;;;;;;13.07;7.28;;;7.10;99.90;;;;;;12458761;28;20451;-83
2021/10/16 08:33:37;;;;;;;12.65;7.82;;;7.40;99.90;;;;;;12440429;28;20053;-84
2021/10/16 08:39:39;;;;;;;12.00;7.35;;;7.50;99.90;;;;;;12462418;28;20083;-85
2021/10/16 08:45:42;;;;;;;11.50;6.97;;;7.70;99.90;;;;;;12441882;28;20056;-83
2021/10/16 08:51:44;;;;;;;12.80;7.88;;;7.80;99.90;;;;;;12438757;28;20059;-83
2021/10/16 08:57:47;;;;;;;15.35;8.30;;;7.90;99.90;;;;;;12464973;28;20049;-85
2021/10/16 09:03:52;;;;;;;11.52;8.07;;;8.00;99.90;;;;;;12436058;28;20048;-85
2021/10/16 09:10:15;;;;;;;14.43;7.93;;;8.10;99.90;;;;;;12457473;28;20061;-85
2021/10/16 09:16:25;;;;;;;12.68;8.32;;;8.30;99.90;;;;;;12459924;28;20053;-83
2021/10/16 09:22:27;;;;;;;15.82;8.90;;;8.60;99.90;;;;;;12440177;28;20081;-86
2021/10/16 09:28:29;;;;;;;17.85;8.25;;;8.70;99.90;;;;;;12434922;28;20072;-84
2021/10/16 09:34:35;;;;;;;18.55;8.93;;;8.90;99.90;;;;;;12439154;28;20049;-85
2021/10/16 09:40:40;;;;;;;20.10;6.25;;;9.10;99.90;;;;;;12441950;28;20516;-84
2021/10/16 09:46:54;;;;;;;13.65;6.57;;;9.30;99.90;;;;;;12438948;28;20140;-84
2021/10/16 09:52:56;;;;;;;17.90;5.77;;;9.60;99.90;;;;;;12452039;28;20122;-85
2021/10/16 09:58:59;;;;;;;11.45;4.57;;;10.00;99.90;;;;;;12470198;28;20498;-86
2021/10/16 10:05:06;;;;;;;14.15;4.32;;;9.90;99.90;;;;;;12444816;28;20417;-86
2021/10/16 10:11:12;;;;;;;16.48;4.47;;;10.00;99.90;;;;;;12449215;28;20078;-85
2021/10/16 10:17:26;;;;;;;11.47;4.33;;;10.00;99.90;;;;;;12458280;28;20132;-84
2021/10/16 10:23:28;;;;;;;12.80;4.20;;;10.10;99.90;;;;;;12467312;28;20296;-85
2021/10/16 10:29:35;;;;;;;15.10;4.07;;;10.50;99.90;;;;;;12468856;28;20143;-85
2021/10/16 10:36:06;;;;;;;13.45;3.78;;;10.50;99.90;;;;;;12449148;28;20041;-85
2021/10/16 10:42:12;;;;;;;15.50;4.18;;;10.50;99.90;;;;;;12443888;28;20240;-85
2021/10/16 10:48:16;;;;;;;11.27;4.38;;;10.50;99.90;;;;;;12442543;28;20057;-86
2021/10/16 10:54:21;;;;;;;14.68;4.38;;;10.60;99.90;;;;;;12463347;28;20594;-84
2021/10/16 11:00:33;;;;;;;16.27;5.00;;;10.60;99.90;;;;;;12462361;28;20053;-84
2021/10/16 11:06:36;;;;;;;10.50;4.25;;;10.70;99.90;;;;;;12449630;28;20517;-85
2021/10/16 11:12:40;;;;;;;12.27;4.85;;;10.80;99.90;;;;;;12446845;28;20172;-84
2021/10/16 11:18:42;;;;;;;11.70;4.10;;;11.00;99.90;;;;;;12467785;28;20763;-86
2021/10/16 11:24:44;;;;;;;13.75;3.78;;;11.10;99.90;;;;;;12458314;28;20045;-86
2021/10/16 11:30:48;;;;;;;14.30;4.00;;;11.10;99.90;;;;;;12441909;28;20095;-86
2021/10/16 11:36:50;;;;;;;11.30;3.47;;;11.00;99.90;;;;;;12442196;28;20136;-84
2021/10/16 11:42:54;;;;;;;9.13;2.35;;;10.90;99.90;;;;;;12462733;28;20049;-85
2021/10/16 11:48:56;;;;;;;;;;;10.70;99.90;;;;;;12455334;28;20309;-84
2021/10/16 11:55:18;;;;;;;12.32;2.60;;;10.70;99.90;;;;;;12454751;28;20757;-85
2021/10/16 12:01:20;;;;;;;10.90;2.92;;;10.50;99.90;;;;;;12460900;28;20409;-84
2021/10/16 12:07:26;;;;;;;9.60;2.63;;;10.40;99.90;;;;;;12442259;28;20888;-86
2021/10/16 12:13:40;;;;;;;10.75;2.80;;;10.30;99.90;;;;;;12434991;28;20053;-84
2021/10/16 12:19:56;;;;;;;9.25;2.45;;;10.20;99.90;;;;;;12437624;28;20056;-85
2021/10/16 12:25:58;;;;;;;11.93;2.97;;;10.10;99.90;;;;;;12440270;28;20583;-86
2021/10/16 12:32:00;;;;;;;8.85;2.40;;;10.20;99.90;;;;;;12431219;28;20086;-85
2021/10/16 12:38:03;;;;;;;11.07;2.75;;;10.10;99.90;;;;;;12459951;28;20045;-85
2021/10/16 12:44:24;;;;;;;9.43;2.83;;;10.10;99.90;;;;;;12439968;28;20057;-85
2021/10/16 12:50:27;;;;;;;8.10;2.20;;;10.10;99.90;;;;;;12438336;28;20045;-85
2021/10/16 12:56:29;;;;;;;8.90;2.10;;;10.20;99.90;;;;;;12430697;28;20391;-85
2021/10/16 13:02:31;;;;;;;9.07;1.80;;;10.20;99.90;;;;;;12442681;28;20430;-86
2021/10/16 13:08:34;;;;;;;9.68;1.88;;;10.40;99.90;;;;;;12429303;28;20228;-86
2021/10/16 13:14:36;;;;;;;11.70;1.90;;;10.50;99.90;;;;;;12439121;28;20140;-86
2021/10/16 13:20:38;;;;;;;6.07;1.83;;;10.50;99.90;;;;;;12464539;28;20065;-85
2021/10/16 13:26:40;;;;;;;6.90;1.58;;;10.50;99.90;;;;;;12446011;28;20068;-85
2021/10/16 13:32:43;;;;;;;10.57;2.17;;;10.50;99.90;;;;;;12457868;28;20132;-84
2021/10/16 13:38:44;;;;;;;10.20;1.98;;;10.60;99.90;;;;;;12461175;28;20147;-85
2021/10/16 13:44:47;;;;;;;5.38;1.40;;;10.60;99.90;;;;;;12438026;28;20049;-86
2021/10/16 13:50:49;;;;;;;10.95;1.90;;;10.60;99.90;;;;;;12441865;28;20587;-84
2021/10/16 13:56:50;;;;;;;7.20;1.92;;;10.50;99.90;;;;;;12436675;28;20114;-85
2021/10/16 14:02:52;;;;;;;7.05;2.15;;;10.50;99.90;;;;;;12457831;28;20045;-86
2021/10/16 14:08:55;;;;;;;8.02;1.90;;;10.40;99.90;;;;;;12435483;28;20049;-85
2021/10/16 14:14:57;;;;;;;7.47;1.48;;;10.40;99.90;;;;;;12435655;28;20563;-84
2021/10/16 14:20:59;;;;;;;5.35;1.20;;;10.40;99.90;;;;;;12433416;28;20098;-86
2021/10/16 14:27:00;;;;;;;6.15;1.00;;;10.10;99.90;;;;;;12433590;28;20053;-84
2021/10/16 14:33:02;;;;;;;3.83;1.13;;;10.10;99.90;;;;;;12441158;28;20145;-85
2021/10/16 14:39:04;;;;;;;6.55;1.67;;;10.10;99.90;;;;;;12465131;28;20152;-85
2021/10/16 14:45:06;;;;;;;4.78;1.10;;;10.10;99.90;;;;;;12444232;28;20653;-85
2021/10/16 14:51:09;;;;;;;4.85;1.15;;;10.10;99.90;;;;;;12449257;28;20064;-85
2021/10/16 14:57:11;;;;;;;6.40;1.48;;;10.00;99.90;;;;;;12438771;28;20106;-84
2021/10/16 15:03:13;;;;;;;9.95;1.00;;;10.00;99.90;;;;;;12447346;28;20053;-84
2021/10/16 15:09:25;;;;;;;3.95;1.10;;;10.00;99.90;;;;;;12462093;28;20132;-85
2021/10/16 15:15:28;;;;;;;;;;;10.00;99.90;;;;;;12455722;28;20463;-85
2021/10/16 15:21:30;;;;;;;11.50;2.60;;;10.00;99.90;;;;;;12465005;28;20007;-85
2021/10/16 15:27:32;;;;;;;9.02;1.33;;;10.00;99.90;;;;;;12465607;28;20429;-84
2021/10/16 15:33:33;;;;;;;6.38;2.00;;;10.00;99.90;;;;;;12443573;28;20132;-85
2021/10/16 15:39:35;;;;;;;8.40;1.60;;;9.90;99.90;;;;;;12447512;28;20061;-86
2021/10/16 15:45:37;;;;;;;3.33;1.13;;;9.90;99.90;;;;;;12437563;28;20057;-84
2021/10/16 15:51:39;;;;;;;6.53;1.40;;;9.80;99.90;;;;;;12459972;28;20069;-84
2021/10/16 15:57:41;;;;;;;6.65;1.30;;;9.80;99.90;;;;;;12440093;28;20588;-86
2021/10/16 16:03:43;;;;;;;4.30;1.20;;;9.70;99.90;;;;;;12434485;28;20448;-85
2021/10/16 16:09:45;;;;;;;8.05;1.60;;;9.70;99.90;;;;;;12445098;28;20460;-84
2021/10/16 16:15:47;;;;;;;5.43;1.27;;;9.70;99.90;;;;;;12440993;28;20482;-85
2021/10/16 16:21:51;;;;;;;5.97;1.58;;;9.70;99.90;;;;;;12449717;28;20116;-84
2021/10/16 16:27:53;;;;;;;4.95;1.73;;;9.60;99.90;;;;;;12440420;28;20138;-85
2021/10/16 16:33:55;;;;;;;5.88;1.65;;;9.50;99.90;;;;;;12438370;28;20045;-86
2021/10/16 16:39:57;;;;;;;5.57;1.80;;;9.50;99.90;;;;;;12442345;28;20079;-84
2021/10/16 16:45:59;;;;;;;7.55;1.98;;;9.40;99.90;;;;;;12440153;28;20110;-85
2021/10/16 16:52:01;;;;;;;6.20;2.15;;;9.40;99.90;;;;;;12436859;28;20462;-86
2021/10/16 16:58:03;;;;;;;7.75;1.83;;;9.30;99.90;;;;;;12456388;28;20053;-85
2021/10/16 17:04:05;;;;;;;4.97;1.70;;;9.30;99.90;;;;;;12457428;28;20098;-86
2021/10/16 17:10:15;;;;;;;8.65;1.63;;;9.20;99.90;;;;;;12451878;28;20114;-87
2021/10/16 17:16:25;;;;;;;5.07;2.30;;;9.30;99.90;;;;;;12458028;28;20050;-85
2021/10/16 17:22:27;;;;;;;10.50;2.20;;;9.10;99.90;;;;;;12437792;28;20577;-86
2021/10/16 17:28:29;;;;;;;7.72;2.10;;;9.10;99.90;;;;;;12443357;28;20053;-86
2021/10/16 17:34:31;;;;;;;7.18;2.13;;;9.20;99.90;;;;;;12431000;28;20049;-86
2021/10/16 17:40:33;;;;;;;8.57;2.17;;;9.10;99.90;;;;;;12435131;28;20075;-86
2021/10/16 17:46:35;;;;;;;10.13;2.20;;;9.00;99.90;;;;;;12437656;28;20133;-85
2021/10/16 17:52:37;;;;;;;7.55;2.08;;;8.90;99.90;;;;;;12434288;28;20051;-85
2021/10/16 17:58:39;;;;;;;12.40;3.03;;;8.80;99.90;;;;;;12432770;28;20041;-85
2021/10/16 18:04:41;;;;;;;7.65;2.08;;;8.80;99.90;;;;;;12452747;28;20045;-86
2021/10/16 18:10:44;;;;;;;13.13;3.30;;;8.80;99.90;;;;;;12444098;28;20107;-85
2021/10/16 18:16:46;;;;;;;9.25;3.40;;;8.70;99.90;;;;;;12443886;28;20124;-86
2021/10/16 18:22:48;;;;;;;9.32;3.70;;;8.80;99.90;;;;;;12468047;28;20068;-86
2021/10/16 18:28:49;;;;;;;11.82;3.58;;;8.80;99.90;;;;;;12446422;28;20209;-85
2021/10/16 18:34:51;;;;;;;14.00;5.25;;;8.90;99.90;;;;;;12443256;28;20102;-86
2021/10/16 18:40:53;;;;;;;12.57;4.35;;;8.80;99.90;;;;;;12457432;28;20099;-86
2021/10/16 18:46:55;;;;;;;9.23;4.25;;;8.90;99.90;;;;;;12448386;28;20080;-85
2021/10/16 18:52:58;;;;;;;10.60;4.72;;;9.00;99.90;;;;;;12463373;28;20168;-85
2021/10/16 18:59:04;;;;;;;10.95;3.78;;;8.80;99.90;;;;;;12444783;28;20112;-86
2021/10/16 19:05:09;;;;;;;9.85;3.45;;;8.90;99.90;;;;;;12441927;28;20148;-86
2021/10/16 19:11:12;;;;;;;;;;;8.70;99.90;;;;;;12445644;28;20140;-85
2021/10/16 19:17:14;;;;;;;10.73;3.88;;;8.70;99.90;;;;;;12440240;28;20646;-85
2021/10/16 19:23:15;;;;;;;13.43;4.35;;;8.60;99.90;;;;;;12466964;28;20087;-85
2021/10/16 19:29:18;;;;;;;11.60;4.93;;;8.40;99.90;;;;;;12466481;28;20083;-85
2021/10/16 19:35:20;;;;;;;14.27;5.50;;;8.40;99.90;;;;;;12442052;28;20053;-85
2021/10/16 19:41:22;;;;;;;12.70;5.20;;;8.30;99.90;;;;;;12458696;28;20524;-85
2021/10/16 19:47:25;;;;;;;10.50;5.25;;;8.30;99.90;;;;;;12441517;28;20091;-86
2021/10/16 19:53:27;;;;;;;11.13;5.50;;;8.20;99.90;;;;;;12438263;28;20136;-85
2021/10/16 19:59:29;;;;;;;18.08;6.78;;;8.20;99.90;;;;;;12444312;28;20263;-85
2021/10/16 20:05:31;;;;;;;11.05;5.40;;;8.10;99.90;;;;;;12438435;28;20057;-85
2021/10/16 20:11:33;;;;;;;19.63;4.93;;;8.10;99.90;;;;;;12438324;28;20049;-86
2021/10/16 20:17:35;;;;;;;18.02;4.70;;;8.00;99.90;;;;;;12457262;28;20102;-85
2021/10/16 20:23:37;;;;;;;9.65;4.25;;;8.00;99.90;;;;;;12453683;28;20335;-84
2021/10/16 20:29:42;;;;;;;11.48;3.72;;;7.90;99.90;;;;;;12436690;28;20061;-85
2021/10/16 20:35:44;;;;;;;12.18;3.83;;;8.00;99.90;;;;;;12442194;28;20052;-85
2021/10/16 20:41:46;;;;;;;9.27;3.65;;;8.00;99.90;;;;;;12438876;28;20045;-84
2021/10/16 20:47:48;;;;;;;8.57;3.33;;;7.90;99.90;;;;;;12437132;28;20057;-86
2021/10/16 20:53:49;;;;;;;10.48;3.00;;;7.90;99.90;;;;;;12438179;28;20049;-84
2021/10/16 20:59:51;;;;;;;9.93;3.97;;;7.90;99.90;;;;;;12440516;28;20053;-84
2021/10/16 21:05:53;;;;;;;11.85;3.90;;;7.90;99.90;;;;;;12435089;28;20051;-86
2021/10/16 21:11:55;;;;;;;8.07;3.67;;;7.80;99.90;;;;;;12433078;28;20049;-86
2021/10/16 21:17:57;;;;;;;10.93;4.60;;;7.80;99.90;;;;;;12453432;28;20077;-86
2021/10/16 21:23:59;;;;;;;14.02;3.70;;;7.70;99.90;;;;;;12434079;28;20091;-86
2021/10/16 21:30:02;;;;;;;12.38;3.13;;;7.70;99.90;;;;;;12435310;28;20076;-85
2021/10/16 21:36:04;;;;;;;9.77;3.53;;;7.60;99.90;;;;;;12445816;28;20091;-85
2021/10/16 21:42:06;;;;;;;11.95;3.30;;;7.70;99.90;;;;;;12453063;28;20570;-86
2021/10/16 21:48:08;;;;;;;14.73;3.00;;;7.70;99.90;;;;;;12453480;28;20075;-85
2021/10/16 21:54:10;;;;;;;7.22;3.00;;;7.60;99.90;;;;;;12450220;28;20168;-85
2021/10/16 22:00:24;;;;;;;6.30;2.55;;;7.60;99.90;;;;;;12442418;28;20049;-86
2021/10/16 22:06:28;;;;;;;15.07;2.95;;;7.70;99.90;;;;;;12435601;28;20136;-86
2021/10/16 22:12:30;;;;;;;11.27;2.95;;;7.60;99.90;;;;;;12430392;28;20049;-84
2021/10/16 22:18:32;;;;;;;7.57;2.75;;;7.70;99.90;;;;;;12432478;28;20054;-84
2021/10/16 22:24:34;;;;;;;9.77;3.15;;;7.60;99.90;;;;;;12438860;28;20037;-86
2021/10/16 22:30:36;;;;;;;8.07;2.88;;;7.60;99.90;;;;;;12451895;28;20129;-86
2021/10/16 22:36:38;;;;;;;11.55;3.13;;;7.70;99.90;;;;;;12433637;28;20061;-84
2021/10/16 22:42:41;;;;;;;12.10;3.22;;;7.60;99.90;;;;;;12442426;28;20056;-84
2021/10/16 22:48:43;;;;;;;8.70;2.95;;;7.50;99.90;;;;;;12456280;28;20049;-86
2021/10/16 22:54:45;;;;;;;11.43;2.88;;;7.40;99.90;;;;;;12436297;28;20081;-85
2021/10/16 23:00:47;;;;;;;11.63;3.40;;;7.50;99.90;;;;;;12440844;28;20075;-84
2021/10/16 23:06:49;;;;;;;7.60;2.97;;;7.40;99.90;;;;;;12444518;28;20053;-84
2021/10/16 23:12:51;;;;;;;14.73;3.72;;;7.50;99.90;;;;;;12441541;28;20049;-85
2021/10/16 23:18:53;;;;;;;12.07;3.67;;;7.50;99.90;;;;;;12442590;28;20132;-85
2021/10/16 23:24:55;;;;;;;17.23;3.38;;;7.50;99.90;;;;;;12439424;28;20045;-84
2021/10/16 23:30:57;;;;;;;7.88;3.40;;;7.50;99.90;;;;;;12443716;28;20049;-86
2021/10/16 23:36:59;;;;;;;8.18;2.75;;;7.60;99.90;;;;;;12439405;28;20049;-86
2021/10/16 23:43:02;;;;;;;16.30;3.88;;;7.60;99.90;;;;;;12442743;28;20057;-85
2021/10/16 23:49:04;;;;;;;11.45;3.42;;;7.70;99.90;;;;;;12440381;28;20057;-86
2021/10/16 23:55:07;;;;;;;9.95;3.28;;;7.70;99.90;;;;;;12443809;28;20526;-85
